createdAt,value
2017-06-15T00:00:03.477Z,802.54
2017-06-15T00:00:07.778Z,802.53
2017-06-15T00:00:12.205Z,802.54
2017-06-15T00:00:16.625Z,802.52
2017-06-15T00:00:21.050Z,802.51
2017-06-15T00:00:25.471Z,802.48
2017-06-15T00:00:29.776Z,802.45
2017-06-15T00:00:34.200Z,802.48
2017-06-15T00:00:38.505Z,802.46
2017-06-15T00:00:42.929Z,802.45
2017-06-15T00:00:47.351Z,802.42
2017-06-15T00:00:51.787Z,802.43
2017-06-15T00:00:55.981Z,802.41
2017-06-15T00:01:00.405Z,802.41
2017-06-15T00:01:04.710Z,802.42
2017-06-15T00:01:08.899Z,802.38
2017-06-15T00:01:13.210Z,802.37
2017-06-15T00:01:17.522Z,802.38
2017-06-15T00:01:21.943Z,802.31
2017-06-15T00:01:26.255Z,802.34
2017-06-15T00:01:30.560Z,802.31
2017-06-15T00:01:34.985Z,802.3
2017-06-15T00:01:39.409Z,802.31
2017-06-15T00:01:43.716Z,802.3
2017-06-15T00:01:48.137Z,802.3
2017-06-15T00:01:52.440Z,802.27
2017-06-15T00:01:56.862Z,802.25
2017-06-15T00:02:01.287Z,802.24
2017-06-15T00:02:05.596Z,802.22
2017-06-15T00:02:09.905Z,802.21
2017-06-15T00:02:14.203Z,802.2
2017-06-15T00:02:18.624Z,802.19
2017-06-15T00:02:23.049Z,802.16
2017-06-15T00:02:27.471Z,802.19
2017-06-15T00:02:31.890Z,802.14
2017-06-15T00:02:36.194Z,802.14
2017-06-15T00:02:40.618Z,802.13
2017-06-15T00:02:45.040Z,802.09
2017-06-15T00:02:49.467Z,802.08
2017-06-15T00:02:53.897Z,802.06
2017-06-15T00:02:58.209Z,802.06
2017-06-15T00:03:02.632Z,802.06
2017-06-15T00:03:07.054Z,802.05
2017-06-15T00:03:11.482Z,801.99
2017-06-15T00:03:15.795Z,802
2017-06-15T00:03:20.218Z,801.98
2017-06-15T00:03:24.643Z,801.95
2017-06-15T00:03:29.070Z,801.94
2017-06-15T00:03:33.495Z,801.93
2017-06-15T00:03:37.805Z,801.92
2017-06-15T00:03:42.115Z,801.9
2017-06-15T00:03:46.537Z,801.89
2017-06-15T00:03:50.960Z,801.91
2017-06-15T00:03:55.384Z,801.87
2017-06-15T00:03:59.807Z,801.86
2017-06-15T00:04:04.236Z,801.81
2017-06-15T00:04:08.429Z,801.83
2017-06-15T00:04:12.853Z,801.83
2017-06-15T00:04:17.040Z,801.8
2017-06-15T00:04:21.456Z,801.78
2017-06-15T00:04:25.882Z,801.79
2017-06-15T00:04:30.331Z,801.76
2017-06-15T00:04:34.523Z,801.77
2017-06-15T00:04:38.824Z,801.73
2017-06-15T00:04:43.127Z,801.72
2017-06-15T00:04:47.552Z,801.72
2017-06-15T00:04:51.975Z,801.73
2017-06-15T00:04:56.434Z,801.7
2017-06-15T00:05:00.859Z,801.69
2017-06-15T00:05:05.047Z,801.69
2017-06-15T00:05:09.350Z,801.64
2017-06-15T00:05:13.658Z,801.65
2017-06-15T00:05:18.087Z,801.64
2017-06-15T00:05:22.394Z,801.6
2017-06-15T00:05:26.816Z,801.6
2017-06-15T00:05:31.238Z,801.59
2017-06-15T00:05:35.656Z,801.57
2017-06-15T00:05:40.076Z,801.58
2017-06-15T00:05:44.509Z,801.55
2017-06-15T00:05:48.939Z,801.54
2017-06-15T00:05:53.360Z,801.55
2017-06-15T00:05:57.793Z,801.54
2017-06-15T00:06:02.216Z,801.51
2017-06-15T00:06:06.519Z,801.5
2017-06-15T00:06:10.824Z,801.48
2017-06-15T00:06:15.132Z,801.49
2017-06-15T00:06:19.561Z,801.48
2017-06-15T00:06:23.984Z,801.42
2017-06-15T00:06:28.410Z,801.4
2017-06-15T00:06:32.832Z,801.42
2017-06-15T00:06:37.134Z,801.36
2017-06-15T00:06:41.595Z,801.41
2017-06-15T00:06:46.023Z,801.38
2017-06-15T00:06:50.450Z,801.4
2017-06-15T00:06:54.870Z,801.37
2017-06-15T00:06:59.293Z,801.36
2017-06-15T00:07:04.022Z,801.35
2017-06-15T00:07:08.332Z,801.34
2017-06-15T00:07:12.752Z,801.31
2017-06-15T00:07:17.175Z,801.29
2017-06-15T00:07:21.597Z,801.28
2017-06-15T00:07:26.020Z,801.28
2017-06-15T00:07:30.462Z,801.24
2017-06-15T00:07:34.889Z,801.22
2017-06-15T00:07:39.313Z,801.19
2017-06-15T00:07:43.732Z,801.21
2017-06-15T00:07:48.151Z,801.2
2017-06-15T00:07:52.340Z,801.16
2017-06-15T00:07:56.770Z,801.16
2017-06-15T00:08:01.071Z,801.13
2017-06-15T00:08:05.788Z,801.12
2017-06-15T00:08:10.097Z,801.11
2017-06-15T00:08:14.517Z,801.07
2017-06-15T00:08:18.832Z,801.07
2017-06-15T00:08:23.165Z,801.06
2017-06-15T00:08:27.587Z,801.08
2017-06-15T00:08:32.006Z,801.04
2017-06-15T00:08:36.427Z,801.03
2017-06-15T00:08:40.728Z,801.03
2017-06-15T00:08:45.069Z,800.98
2017-06-15T00:08:49.498Z,800.97
2017-06-15T00:08:53.807Z,800.96
2017-06-15T00:08:58.112Z,800.92
2017-06-15T00:09:02.530Z,800.96
2017-06-15T00:09:06.957Z,800.93
2017-06-15T00:09:11.425Z,800.9
2017-06-15T00:09:15.727Z,800.9
2017-06-15T00:09:20.145Z,800.88
2017-06-15T00:09:24.567Z,800.86
2017-06-15T00:09:28.880Z,800.83
2017-06-15T00:09:32.949Z,800.8
2017-06-15T00:09:37.374Z,800.81
2017-06-15T00:09:41.807Z,800.83
2017-06-15T00:09:46.237Z,800.74
2017-06-15T00:09:50.661Z,800.72
2017-06-15T00:09:55.083Z,800.73
2017-06-15T00:09:59.520Z,800.74
2017-06-15T00:10:03.713Z,800.75
2017-06-15T00:10:07.903Z,800.72
2017-06-15T00:10:12.089Z,800.73
2017-06-15T00:10:16.286Z,800.69
2017-06-15T00:10:20.602Z,800.69
2017-06-15T00:10:24.912Z,800.68
2017-06-15T00:10:29.334Z,800.6
2017-06-15T00:10:33.756Z,800.67
2017-06-15T00:10:37.941Z,800.65
2017-06-15T00:10:42.369Z,800.64
2017-06-15T00:10:46.796Z,800.6
2017-06-15T00:10:51.215Z,800.6
2017-06-15T00:10:55.634Z,800.58
2017-06-15T00:11:00.049Z,800.59
2017-06-15T00:11:04.480Z,800.57
2017-06-15T00:11:08.794Z,800.55
2017-06-15T00:11:13.097Z,800.52
2017-06-15T00:11:17.402Z,800.55
2017-06-15T00:11:21.820Z,800.54
2017-06-15T00:11:26.248Z,800.52
2017-06-15T00:11:30.694Z,800.5
2017-06-15T00:11:35.121Z,800.47
2017-06-15T00:11:39.426Z,800.48
2017-06-15T00:11:43.849Z,800.45
2017-06-15T00:11:48.157Z,800.45
2017-06-15T00:11:52.589Z,800.45
2017-06-15T00:11:57.007Z,800.41
2017-06-15T00:12:01.193Z,800.36
2017-06-15T00:12:05.641Z,800.41
2017-06-15T00:12:09.946Z,800.4
2017-06-15T00:12:14.289Z,800.42
2017-06-15T00:12:18.711Z,800.39
2017-06-15T00:12:23.285Z,800.37
2017-06-15T00:12:27.702Z,800.31
2017-06-15T00:12:32.006Z,800.29
2017-06-15T00:12:36.429Z,800.28
2017-06-15T00:12:40.735Z,800.27
2017-06-15T00:12:45.156Z,800.29
2017-06-15T00:12:49.587Z,800.27
2017-06-15T00:12:54.014Z,800.27
2017-06-15T00:12:58.435Z,800.21
2017-06-15T00:13:02.697Z,800.19
2017-06-15T00:13:07.003Z,800.2
2017-06-15T00:13:11.430Z,800.23
2017-06-15T00:13:15.856Z,800.2
2017-06-15T00:13:20.279Z,800.17
2017-06-15T00:13:24.698Z,800.19
2017-06-15T00:13:29.136Z,800.15
2017-06-15T00:13:33.563Z,800.09
2017-06-15T00:13:37.981Z,800.14
2017-06-15T00:13:42.399Z,800.1
2017-06-15T00:13:46.824Z,800.07
2017-06-15T00:13:51.252Z,800.08
2017-06-15T00:13:55.670Z,799.99
2017-06-15T00:14:00.091Z,800.01
2017-06-15T00:14:04.393Z,799.95
2017-06-15T00:14:08.700Z,800.01
2017-06-15T00:14:12.901Z,800.01
2017-06-15T00:14:17.324Z,799.93
2017-06-15T00:14:21.748Z,799.98
2017-06-15T00:14:26.177Z,799.97
2017-06-15T00:14:30.601Z,799.91
2017-06-15T00:14:35.022Z,799.91
2017-06-15T00:14:39.332Z,799.9
2017-06-15T00:14:43.640Z,799.86
2017-06-15T00:14:48.066Z,799.91
2017-06-15T00:14:52.486Z,799.9
2017-06-15T00:14:56.672Z,799.9
2017-06-15T00:15:01.100Z,799.89
2017-06-15T00:15:05.831Z,799.87
2017-06-15T00:15:10.261Z,799.89
2017-06-15T00:15:14.687Z,799.84
2017-06-15T00:15:19.005Z,799.85
2017-06-15T00:15:23.426Z,799.85
2017-06-15T00:15:27.853Z,799.82
2017-06-15T00:15:32.302Z,799.81
2017-06-15T00:15:36.721Z,799.81
2017-06-15T00:15:41.027Z,799.81
2017-06-15T00:15:45.450Z,799.79
2017-06-15T00:15:49.755Z,799.8
2017-06-15T00:15:54.223Z,799.74
2017-06-15T00:15:58.408Z,799.72
2017-06-15T00:16:02.830Z,799.73
2017-06-15T00:16:07.258Z,799.73
2017-06-15T00:16:11.577Z,799.71
2017-06-15T00:16:15.996Z,799.71
2017-06-15T00:16:20.414Z,799.66
2017-06-15T00:16:24.832Z,799.68
2017-06-15T00:16:29.255Z,799.62
2017-06-15T00:16:33.706Z,799.67
2017-06-15T00:16:38.008Z,799.64
2017-06-15T00:16:42.430Z,799.61
2017-06-15T00:16:46.848Z,799.64
2017-06-15T00:16:51.275Z,799.65
2017-06-15T00:16:55.700Z,799.61
2017-06-15T00:17:00.162Z,799.58
2017-06-15T00:17:04.521Z,799.58
2017-06-15T00:17:08.823Z,799.54
2017-06-15T00:17:13.242Z,799.56
2017-06-15T00:17:17.666Z,799.52
2017-06-15T00:17:21.974Z,799.55
2017-06-15T00:17:26.397Z,799.51
2017-06-15T00:17:30.822Z,799.47
2017-06-15T00:17:35.241Z,799.5
2017-06-15T00:17:39.669Z,799.5
2017-06-15T00:17:44.094Z,799.47
2017-06-15T00:17:48.559Z,799.49
2017-06-15T00:17:52.982Z,799.47
2017-06-15T00:17:57.284Z,799.42
2017-06-15T00:18:01.709Z,799.43
2017-06-15T00:18:06.066Z,799.42
2017-06-15T00:18:10.257Z,799.42
2017-06-15T00:18:14.682Z,799.4
2017-06-15T00:18:18.992Z,799.42
2017-06-15T00:18:23.297Z,799.39
2017-06-15T00:18:27.717Z,799.42
2017-06-15T00:18:32.141Z,799.35
2017-06-15T00:18:36.593Z,799.4
2017-06-15T00:18:40.899Z,799.37
2017-06-15T00:18:45.200Z,799.38
2017-06-15T00:18:49.619Z,799.34
2017-06-15T00:18:53.924Z,799.33
2017-06-15T00:18:58.366Z,799.36
2017-06-15T00:19:02.992Z,799.33
2017-06-15T00:19:07.418Z,799.35
2017-06-15T00:19:11.841Z,799.35
2017-06-15T00:19:16.145Z,799.34
2017-06-15T00:19:20.569Z,799.28
2017-06-15T00:19:24.878Z,799.28
2017-06-15T00:19:29.300Z,799.28
2017-06-15T00:19:33.606Z,799.26
2017-06-15T00:19:38.033Z,799.28
2017-06-15T00:19:42.338Z,799.3
2017-06-15T00:19:46.767Z,799.3
2017-06-15T00:19:51.188Z,799.27
2017-06-15T00:19:55.605Z,799.27
2017-06-15T00:20:00.030Z,799.27
2017-06-15T00:20:04.683Z,799.25
2017-06-15T00:20:09.113Z,799.23
2017-06-15T00:20:13.453Z,799.26
2017-06-15T00:20:17.871Z,799.23
2017-06-15T00:20:22.292Z,799.26
2017-06-15T00:20:26.712Z,799.23
2017-06-15T00:20:31.146Z,799.23
2017-06-15T00:20:35.577Z,799.23
2017-06-15T00:20:39.882Z,799.18
2017-06-15T00:20:44.307Z,799.2
2017-06-15T00:20:48.618Z,799.18
2017-06-15T00:20:53.040Z,799.21
2017-06-15T00:20:57.464Z,799.21
2017-06-15T00:21:02.278Z,799.19
2017-06-15T00:21:06.705Z,799.21
2017-06-15T00:21:11.008Z,799.23
2017-06-15T00:21:15.206Z,799.2
2017-06-15T00:21:19.631Z,799.21
2017-06-15T00:21:23.821Z,799.16
2017-06-15T00:21:28.023Z,799.13
2017-06-15T00:21:32.449Z,799.16
2017-06-15T00:21:36.876Z,799.18
2017-06-15T00:21:41.305Z,799.2
2017-06-15T00:21:45.724Z,799.17
2017-06-15T00:21:50.146Z,799.15
2017-06-15T00:21:54.564Z,799.11
2017-06-15T00:21:58.982Z,799.15
2017-06-15T00:22:03.289Z,799.15
2017-06-15T00:22:07.482Z,799.13
2017-06-15T00:22:11.905Z,799.13
2017-06-15T00:22:16.090Z,799.1
2017-06-15T00:22:20.272Z,799.1
2017-06-15T00:22:24.694Z,799.07
2017-06-15T00:22:29.126Z,799.06
2017-06-15T00:22:33.545Z,799.08
2017-06-15T00:22:37.965Z,799.03
2017-06-15T00:22:42.388Z,799.11
2017-06-15T00:22:46.809Z,799.07
2017-06-15T00:22:51.241Z,799.09
2017-06-15T00:22:55.676Z,799.09
2017-06-15T00:22:59.989Z,799.03
2017-06-15T00:23:04.416Z,799.04
2017-06-15T00:23:08.604Z,799.05
2017-06-15T00:23:12.906Z,799.08
2017-06-15T00:23:17.330Z,799.06
2017-06-15T00:23:21.637Z,799.03
2017-06-15T00:23:26.059Z,799.06
2017-06-15T00:23:30.390Z,799.05
2017-06-15T00:23:34.811Z,799.06
2017-06-15T00:23:39.242Z,799.05
2017-06-15T00:23:43.545Z,799.06
2017-06-15T00:23:47.968Z,799.03
2017-06-15T00:23:52.392Z,799.04
2017-06-15T00:23:56.816Z,799.02
2017-06-15T00:24:01.006Z,799.04
2017-06-15T00:24:05.348Z,799
2017-06-15T00:24:09.771Z,799
2017-06-15T00:24:14.197Z,798.99
2017-06-15T00:24:18.503Z,798.98
2017-06-15T00:24:22.807Z,799.03
2017-06-15T00:24:27.234Z,798.99
2017-06-15T00:24:31.538Z,798.97
2017-06-15T00:24:35.959Z,798.99
2017-06-15T00:24:40.382Z,798.98
2017-06-15T00:24:44.806Z,799
2017-06-15T00:24:49.234Z,798.97
2017-06-15T00:24:53.545Z,798.95
2017-06-15T00:24:57.976Z,798.98
2017-06-15T00:25:02.483Z,798.95
2017-06-15T00:25:06.911Z,798.97
2017-06-15T00:25:11.336Z,798.96
2017-06-15T00:25:15.647Z,798.96
2017-06-15T00:25:20.068Z,798.93
2017-06-15T00:25:24.499Z,798.92
2017-06-15T00:25:28.820Z,798.95
2017-06-15T00:25:33.245Z,798.97
2017-06-15T00:25:37.432Z,798.93
2017-06-15T00:25:41.885Z,798.95
2017-06-15T00:25:46.313Z,798.91
2017-06-15T00:25:50.734Z,798.88
2017-06-15T00:25:55.151Z,798.91
2017-06-15T00:25:59.570Z,798.94
2017-06-15T00:26:04.249Z,798.9
2017-06-15T00:26:08.681Z,798.91
2017-06-15T00:26:12.985Z,798.9
2017-06-15T00:26:17.172Z,798.9
2017-06-15T00:26:21.596Z,798.89
2017-06-15T00:26:25.786Z,798.9
2017-06-15T00:26:30.233Z,798.84
2017-06-15T00:26:34.655Z,798.85
2017-06-15T00:26:39.078Z,798.81
2017-06-15T00:26:43.391Z,798.83
2017-06-15T00:26:47.817Z,798.88
2017-06-15T00:26:52.252Z,798.85
2017-06-15T00:26:56.673Z,798.82
2017-06-15T00:27:01.100Z,798.86
2017-06-15T00:27:05.334Z,798.85
2017-06-15T00:27:09.756Z,798.86
2017-06-15T00:27:13.952Z,798.81
2017-06-15T00:27:18.262Z,798.84
2017-06-15T00:27:22.686Z,798.81
2017-06-15T00:27:27.040Z,798.83
2017-06-15T00:27:31.346Z,798.83
2017-06-15T00:27:35.661Z,798.8
2017-06-15T00:27:40.087Z,798.78
2017-06-15T00:27:44.510Z,798.82
2017-06-15T00:27:48.934Z,798.82
2017-06-15T00:27:53.360Z,798.8
2017-06-15T00:27:57.786Z,798.82
2017-06-15T00:28:02.090Z,798.76
2017-06-15T00:28:06.400Z,798.79
2017-06-15T00:28:10.821Z,798.77
2017-06-15T00:28:15.131Z,798.79
2017-06-15T00:28:19.434Z,798.78
2017-06-15T00:28:23.859Z,798.78
2017-06-15T00:28:28.102Z,798.77
2017-06-15T00:28:32.402Z,798.74
2017-06-15T00:28:36.820Z,798.74
2017-06-15T00:28:41.238Z,798.8
2017-06-15T00:28:45.665Z,798.8
2017-06-15T00:28:49.878Z,798.8
2017-06-15T00:28:54.184Z,798.8
2017-06-15T00:28:58.602Z,798.81
2017-06-15T00:29:02.911Z,798.8
2017-06-15T00:29:07.334Z,798.76
2017-06-15T00:29:11.762Z,798.79
2017-06-15T00:29:15.954Z,798.78
2017-06-15T00:29:20.378Z,798.81
2017-06-15T00:29:24.797Z,798.77
2017-06-15T00:29:29.223Z,798.77
2017-06-15T00:29:33.646Z,798.75
2017-06-15T00:29:37.962Z,798.74
2017-06-15T00:29:42.030Z,798.77
2017-06-15T00:29:46.452Z,798.78
2017-06-15T00:29:50.875Z,798.81
2017-06-15T00:29:55.298Z,798.77
2017-06-15T00:29:59.721Z,798.78
2017-06-15T00:30:04.165Z,798.76
2017-06-15T00:30:08.597Z,798.74
2017-06-15T00:30:12.897Z,798.76
2017-06-15T00:30:17.325Z,798.76
2017-06-15T00:30:21.750Z,798.75
2017-06-15T00:30:26.067Z,798.77
2017-06-15T00:30:30.252Z,798.75
2017-06-15T00:30:34.444Z,798.74
2017-06-15T00:30:38.864Z,798.77
2017-06-15T00:30:43.284Z,798.77
2017-06-15T00:30:47.710Z,798.77
2017-06-15T00:30:52.146Z,798.73
2017-06-15T00:30:56.451Z,798.75
2017-06-15T00:31:00.870Z,798.76
2017-06-15T00:31:05.443Z,798.75
2017-06-15T00:31:09.867Z,798.74
2017-06-15T00:31:14.286Z,798.75
2017-06-15T00:31:18.468Z,798.76
2017-06-15T00:31:22.885Z,798.77
2017-06-15T00:31:27.312Z,798.71
2017-06-15T00:31:31.752Z,798.8
2017-06-15T00:31:36.059Z,798.73
2017-06-15T00:31:40.478Z,798.75
2017-06-15T00:31:44.913Z,798.76
2017-06-15T00:31:49.334Z,798.78
2017-06-15T00:31:53.759Z,798.77
2017-06-15T00:31:58.187Z,798.79
2017-06-15T00:32:02.963Z,798.78
2017-06-15T00:32:07.273Z,798.78
2017-06-15T00:32:11.699Z,798.75
2017-06-15T00:32:16.120Z,798.77
2017-06-15T00:32:20.548Z,798.76
2017-06-15T00:32:24.856Z,798.79
2017-06-15T00:32:29.179Z,798.75
2017-06-15T00:32:33.602Z,798.79
2017-06-15T00:32:37.908Z,798.79
2017-06-15T00:32:42.330Z,798.76
2017-06-15T00:32:46.781Z,798.75
2017-06-15T00:32:51.208Z,798.78
2017-06-15T00:32:55.394Z,798.75
2017-06-15T00:32:59.812Z,798.74
2017-06-15T00:33:04.531Z,798.78
2017-06-15T00:33:08.955Z,798.73
2017-06-15T00:33:13.420Z,798.76
2017-06-15T00:33:17.842Z,798.8
2017-06-15T00:33:22.258Z,798.75
2017-06-15T00:33:26.562Z,798.81
2017-06-15T00:33:31.002Z,798.78
2017-06-15T00:33:35.425Z,798.75
2017-06-15T00:33:39.725Z,798.81
2017-06-15T00:33:44.027Z,798.8
2017-06-15T00:33:48.455Z,798.81
2017-06-15T00:33:52.874Z,798.81
2017-06-15T00:33:57.304Z,798.8
2017-06-15T00:34:01.734Z,798.82
2017-06-15T00:34:06.041Z,798.82
2017-06-15T00:34:10.474Z,798.81
2017-06-15T00:34:14.900Z,798.79
2017-06-15T00:34:19.203Z,798.79
2017-06-15T00:34:23.624Z,798.82
2017-06-15T00:34:28.066Z,798.8
2017-06-15T00:34:32.250Z,798.81
2017-06-15T00:34:36.675Z,798.82
2017-06-15T00:34:40.864Z,798.78
2017-06-15T00:34:45.287Z,798.82
2017-06-15T00:34:49.732Z,798.79
2017-06-15T00:34:54.153Z,798.83
2017-06-15T00:34:58.574Z,798.77
2017-06-15T00:35:02.997Z,798.85
2017-06-15T00:35:07.073Z,798.82
2017-06-15T00:35:11.507Z,798.83
2017-06-15T00:35:15.811Z,798.83
2017-06-15T00:35:20.239Z,798.83
2017-06-15T00:35:24.659Z,798.83
2017-06-15T00:35:29.083Z,798.84
2017-06-15T00:35:33.545Z,798.86
2017-06-15T00:35:37.738Z,798.82
2017-06-15T00:35:42.043Z,798.83
2017-06-15T00:35:46.460Z,798.83
2017-06-15T00:35:50.883Z,798.88
2017-06-15T00:35:55.194Z,798.86
2017-06-15T00:35:59.513Z,798.85
2017-06-15T00:36:04.170Z,798.87
2017-06-15T00:36:08.479Z,798.85
2017-06-15T00:36:12.785Z,798.86
2017-06-15T00:36:17.209Z,798.88
2017-06-15T00:36:21.639Z,798.88
2017-06-15T00:36:26.064Z,798.86
2017-06-15T00:36:30.367Z,798.84
2017-06-15T00:36:34.668Z,798.89
2017-06-15T00:36:38.857Z,798.87
2017-06-15T00:36:43.286Z,798.88
2017-06-15T00:36:47.713Z,798.85
2017-06-15T00:36:52.133Z,798.86
2017-06-15T00:36:56.446Z,798.87
2017-06-15T00:37:00.864Z,798.89
2017-06-15T00:37:05.376Z,798.86
2017-06-15T00:37:09.808Z,798.89
2017-06-15T00:37:14.227Z,798.87
2017-06-15T00:37:18.532Z,798.88
2017-06-15T00:37:22.958Z,798.89
2017-06-15T00:37:27.378Z,798.88
2017-06-15T00:37:31.823Z,798.89
2017-06-15T00:37:36.009Z,798.91
2017-06-15T00:37:40.438Z,798.89
2017-06-15T00:37:44.753Z,798.87
2017-06-15T00:37:49.054Z,798.91
2017-06-15T00:37:53.479Z,798.89
2017-06-15T00:37:57.906Z,798.9
2017-06-15T00:38:02.328Z,798.89
2017-06-15T00:38:06.758Z,798.89
2017-06-15T00:38:11.066Z,798.86
2017-06-15T00:38:15.260Z,798.87
2017-06-15T00:38:19.687Z,798.89
2017-06-15T00:38:23.997Z,798.89
2017-06-15T00:38:28.298Z,798.91
2017-06-15T00:38:32.717Z,798.91
2017-06-15T00:38:37.142Z,798.91
2017-06-15T00:38:41.571Z,798.89
2017-06-15T00:38:45.988Z,798.92
2017-06-15T00:38:50.414Z,798.89
2017-06-15T00:38:54.840Z,798.9
2017-06-15T00:38:59.272Z,798.93
2017-06-15T00:39:03.708Z,798.9
2017-06-15T00:39:08.136Z,798.91
2017-06-15T00:39:12.563Z,798.9
2017-06-15T00:39:16.753Z,798.9
2017-06-15T00:39:21.172Z,798.91
2017-06-15T00:39:25.479Z,798.91
2017-06-15T00:39:29.805Z,798.9
2017-06-15T00:39:34.260Z,798.9
2017-06-15T00:39:38.566Z,798.94
2017-06-15T00:39:42.990Z,798.91
2017-06-15T00:39:47.417Z,798.84
2017-06-15T00:39:51.847Z,798.89
2017-06-15T00:39:56.280Z,798.93
2017-06-15T00:40:00.704Z,798.89
2017-06-15T00:40:04.893Z,798.9
2017-06-15T00:40:09.325Z,798.9
2017-06-15T00:40:13.634Z,798.91
2017-06-15T00:40:17.952Z,798.89
2017-06-15T00:40:22.259Z,798.87
2017-06-15T00:40:26.684Z,798.88
2017-06-15T00:40:31.133Z,798.88
2017-06-15T00:40:35.555Z,798.9
2017-06-15T00:40:39.863Z,798.9
2017-06-15T00:40:44.288Z,798.91
2017-06-15T00:40:48.715Z,798.85
2017-06-15T00:40:53.137Z,798.91
2017-06-15T00:40:57.325Z,798.88
2017-06-15T00:41:01.749Z,798.85
2017-06-15T00:41:06.182Z,798.88
2017-06-15T00:41:10.599Z,798.87
2017-06-15T00:41:14.785Z,798.89
2017-06-15T00:41:19.089Z,798.88
2017-06-15T00:41:23.516Z,798.88
2017-06-15T00:41:27.944Z,798.87
2017-06-15T00:41:32.410Z,798.88
2017-06-15T00:41:36.831Z,798.85
2017-06-15T00:41:41.137Z,798.87
2017-06-15T00:41:45.441Z,798.85
2017-06-15T00:41:49.862Z,798.86
2017-06-15T00:41:54.283Z,798.85
2017-06-15T00:41:58.498Z,798.85
2017-06-15T00:42:02.924Z,798.8
2017-06-15T00:42:07.225Z,798.83
2017-06-15T00:42:11.645Z,798.85
2017-06-15T00:42:15.952Z,798.83
2017-06-15T00:42:20.378Z,798.84
2017-06-15T00:42:24.803Z,798.81
2017-06-15T00:42:29.224Z,798.8
2017-06-15T00:42:33.649Z,798.79
2017-06-15T00:42:38.075Z,798.83
2017-06-15T00:42:42.378Z,798.83
2017-06-15T00:42:46.716Z,798.8
2017-06-15T00:42:51.033Z,798.82
2017-06-15T00:42:55.456Z,798.85
2017-06-15T00:42:59.881Z,798.82
2017-06-15T00:43:04.303Z,798.82
2017-06-15T00:43:08.731Z,798.84
2017-06-15T00:43:13.158Z,798.79
2017-06-15T00:43:17.582Z,798.82
2017-06-15T00:43:22.010Z,798.82
2017-06-15T00:43:26.436Z,798.82
2017-06-15T00:43:30.875Z,798.83
2017-06-15T00:43:35.183Z,798.81
2017-06-15T00:43:39.487Z,798.8
2017-06-15T00:43:43.788Z,798.8
2017-06-15T00:43:48.100Z,798.82
2017-06-15T00:43:52.404Z,798.81
2017-06-15T00:43:56.708Z,798.83
2017-06-15T00:44:01.026Z,798.79
2017-06-15T00:44:05.529Z,798.79
2017-06-15T00:44:09.828Z,798.82
2017-06-15T00:44:14.252Z,798.79
2017-06-15T00:44:18.581Z,798.8
2017-06-15T00:44:22.893Z,798.8
2017-06-15T00:44:27.317Z,798.78
2017-06-15T00:44:31.752Z,798.72
2017-06-15T00:44:36.069Z,798.78
2017-06-15T00:44:40.377Z,798.77
2017-06-15T00:44:44.808Z,798.79
2017-06-15T00:44:49.152Z,798.77
2017-06-15T00:44:53.575Z,798.8
2017-06-15T00:44:58.005Z,798.82
2017-06-15T00:45:02.511Z,798.79
2017-06-15T00:45:06.817Z,798.77
2017-06-15T00:45:11.252Z,798.79
2017-06-15T00:45:15.561Z,798.77
2017-06-15T00:45:19.990Z,798.77
2017-06-15T00:45:24.059Z,798.76
2017-06-15T00:45:28.481Z,798.72
2017-06-15T00:45:32.908Z,798.8
2017-06-15T00:45:37.337Z,798.75
2017-06-15T00:45:41.761Z,798.77
2017-06-15T00:45:46.179Z,798.77
2017-06-15T00:45:50.483Z,798.76
2017-06-15T00:45:54.910Z,798.73
2017-06-15T00:45:59.335Z,798.76
2017-06-15T00:46:03.703Z,798.77
2017-06-15T00:46:08.132Z,798.77
2017-06-15T00:46:12.555Z,798.75
2017-06-15T00:46:16.853Z,798.77
2017-06-15T00:46:21.322Z,798.75
2017-06-15T00:46:25.759Z,798.77
2017-06-15T00:46:30.182Z,798.73
2017-06-15T00:46:34.603Z,798.74
2017-06-15T00:46:38.906Z,798.74
2017-06-15T00:46:43.209Z,798.75
2017-06-15T00:46:47.524Z,798.73
2017-06-15T00:46:51.958Z,798.75
2017-06-15T00:46:56.384Z,798.75
2017-06-15T00:47:00.687Z,798.73
2017-06-15T00:47:05.106Z,798.75
2017-06-15T00:47:09.560Z,798.74
2017-06-15T00:47:13.984Z,798.74
2017-06-15T00:47:18.292Z,798.73
2017-06-15T00:47:22.716Z,798.74
2017-06-15T00:47:27.141Z,798.73
2017-06-15T00:47:31.566Z,798.72
2017-06-15T00:47:36.031Z,798.72
2017-06-15T00:47:40.337Z,798.73
2017-06-15T00:47:44.753Z,798.72
2017-06-15T00:47:48.936Z,798.74
2017-06-15T00:47:53.355Z,798.75
2017-06-15T00:47:57.787Z,798.7
2017-06-15T00:48:02.356Z,798.74
2017-06-15T00:48:06.780Z,798.72
2017-06-15T00:48:11.200Z,798.69
2017-06-15T00:48:15.382Z,798.65
2017-06-15T00:48:19.817Z,798.66
2017-06-15T00:48:24.239Z,798.72
2017-06-15T00:48:28.662Z,798.75
2017-06-15T00:48:33.082Z,798.72
2017-06-15T00:48:37.501Z,798.72
2017-06-15T00:48:41.689Z,798.72
2017-06-15T00:48:46.116Z,798.73
2017-06-15T00:48:50.463Z,798.7
2017-06-15T00:48:54.769Z,798.72
2017-06-15T00:48:59.190Z,798.73
2017-06-15T00:49:03.764Z,798.71
2017-06-15T00:49:08.184Z,798.73
2017-06-15T00:49:12.615Z,798.73
2017-06-15T00:49:16.804Z,798.72
2017-06-15T00:49:21.222Z,798.72
2017-06-15T00:49:25.648Z,798.71
2017-06-15T00:49:30.070Z,798.72
2017-06-15T00:49:34.502Z,798.73
2017-06-15T00:49:38.932Z,798.71
2017-06-15T00:49:43.234Z,798.69
2017-06-15T00:49:47.540Z,798.71
2017-06-15T00:49:51.853Z,798.7
2017-06-15T00:49:56.283Z,798.7
2017-06-15T00:50:00.703Z,798.68
2017-06-15T00:50:05.143Z,798.69
2017-06-15T00:50:09.448Z,798.7
2017-06-15T00:50:13.756Z,798.74
2017-06-15T00:50:18.178Z,798.75
2017-06-15T00:50:22.603Z,798.7
2017-06-15T00:50:27.068Z,798.66
2017-06-15T00:50:31.490Z,798.69
2017-06-15T00:50:35.793Z,798.7
2017-06-15T00:50:40.218Z,798.73
2017-06-15T00:50:44.527Z,798.72
2017-06-15T00:50:48.710Z,798.71
2017-06-15T00:50:53.144Z,798.73
2017-06-15T00:50:57.489Z,798.68
2017-06-15T00:51:02.007Z,798.72
2017-06-15T00:51:06.431Z,798.69
2017-06-15T00:51:10.862Z,798.71
2017-06-15T00:51:15.055Z,798.69
2017-06-15T00:51:19.508Z,798.67
2017-06-15T00:51:23.937Z,798.69
2017-06-15T00:51:28.258Z,798.69
2017-06-15T00:51:32.574Z,798.71
2017-06-15T00:51:36.996Z,798.71
2017-06-15T00:51:41.462Z,798.71
2017-06-15T00:51:45.894Z,798.68
2017-06-15T00:51:50.311Z,798.69
2017-06-15T00:51:54.618Z,798.7
2017-06-15T00:51:59.045Z,798.71
2017-06-15T00:52:03.402Z,798.67
2017-06-15T00:52:07.482Z,798.72
2017-06-15T00:52:11.910Z,798.7
2017-06-15T00:52:16.213Z,798.72
2017-06-15T00:52:20.636Z,798.73
2017-06-15T00:52:25.060Z,798.66
2017-06-15T00:52:29.500Z,798.71
2017-06-15T00:52:33.930Z,798.71
2017-06-15T00:52:38.351Z,798.69
2017-06-15T00:52:42.651Z,798.73
2017-06-15T00:52:47.073Z,798.65
2017-06-15T00:52:51.377Z,798.73
2017-06-15T00:52:55.805Z,798.72
2017-06-15T00:53:00.149Z,798.7
2017-06-15T00:53:04.573Z,798.74
2017-06-15T00:53:08.996Z,798.7
2017-06-15T00:53:13.418Z,798.7
2017-06-15T00:53:17.609Z,798.72
2017-06-15T00:53:22.037Z,798.71
2017-06-15T00:53:26.455Z,798.72
2017-06-15T00:53:30.882Z,798.72
2017-06-15T00:53:35.302Z,798.69
2017-06-15T00:53:39.491Z,798.69
2017-06-15T00:53:43.918Z,798.75
2017-06-15T00:53:48.113Z,798.74
2017-06-15T00:53:52.415Z,798.76
2017-06-15T00:53:56.838Z,798.77
2017-06-15T00:54:01.138Z,798.72
2017-06-15T00:54:05.567Z,798.72
2017-06-15T00:54:10.014Z,798.69
2017-06-15T00:54:14.316Z,798.74
2017-06-15T00:54:18.737Z,798.73
2017-06-15T00:54:23.164Z,798.75
2017-06-15T00:54:27.351Z,798.7
2017-06-15T00:54:31.789Z,798.72
2017-06-15T00:54:36.211Z,798.73
2017-06-15T00:54:40.633Z,798.76
2017-06-15T00:54:45.055Z,798.77
2017-06-15T00:54:49.483Z,798.75
2017-06-15T00:54:53.828Z,798.72